sensor_id;sensor_type;location;lat;lon;timestamp;P1;P2;P0
50589;PMS7003;36547;50.514;30.840;2023-06-10T00:00:00;22.10;20.60;15.90
50589;PMS7003;36547;50.514;30.840;2023-06-10T00:01:02;25.80;23.00;17.40
50589;PMS7003;36547;50.514;30.840;2023-06-10T00:02:05;23.50;19.60;16.00
50589;PMS7003;36547;50.514;30.840;2023-06-10T00:03:07;19.50;18.00;12.80
50589;PMS7003;36547;50.514;30.840;2023-06-10T00:04:10;24.45;23.45;17.55
50589;PMS7003;36547;50.514;30.840;2023-06-10T00:05:12;23.20;22.60;16.30
50589;PMS7003;36547;50.514;30.840;2023-06-10T00:06:15;23.09;21.36;17.18
50589;PMS7003;36547;50.514;30.840;2023-06-10T00:07:18;22.60;21.00;16.60
50589;PMS7003;36547;50.514;30.840;2023-06-10T00:08:20;22.18;19.64;15.45
50589;PMS7003;36547;50.514;30.840;2023-06-10T00:09:23;21.20;21.20;17.20
50589;PMS7003;36547;50.514;30.840;2023-06-10T00:10:26;23.50;22.30;17.50
50589;PMS7003;36547;50.514;30.840;2023-06-10T00:11:29;23.00;22.10;17.10
50589;PMS7003;36547;50.514;30.840;2023-06-10T00:12:31;25.50;23.90;17.90
50589;PMS7003;36547;50.514;30.840;2023-06-10T00:13:34;22.10;20.40;16.20
50589;PMS7003;36547;50.514;30.840;2023-06-10T00:14:39;22.30;19.70;15.40
50589;PMS7003;36547;50.514;30.840;2023-06-10T00:15:42;19.60;19.30;15.90
50589;PMS7003;36547;50.514;30.840;2023-06-10T00:16:44;20.20;19.80;15.90
50589;PMS7003;36547;50.514;30.840;2023-06-10T00:17:46;24.40;22.00;16.60
50589;PMS7003;36547;50.514;30.840;2023-06-10T00:18:49;22.20;21.20;16.30
50589;PMS7003;36547;50.514;30.840;2023-06-10T00:19:51;21.10;20.10;17.20
50589;PMS7003;36547;50.514;30.840;2023-06-10T00:20:54;20.90;20.90;16.00
50589;PMS7003;36547;50.514;30.840;2023-06-10T00:21:56;20.90;20.10;15.80
50589;PMS7003;36547;50.514;30.840;2023-06-10T00:22:59;20.45;19.18;15.91
50589;PMS7003;36547;50.514;30.840;2023-06-10T00:24:04;18.50;17.70;13.90
50589;PMS7003;36547;50.514;30.840;2023-06-10T00:25:07;21.10;20.50;15.70
50589;PMS7003;36547;50.514;30.840;2023-06-10T00:26:12;19.00;17.90;13.50
50589;PMS7003;36547;50.514;30.840;2023-06-10T00:27:15;20.20;20.00;16.10
50589;PMS7003;36547;50.514;30.840;2023-06-10T00:28:17;21.40;19.40;14.70
50589;PMS7003;36547;50.514;30.840;2023-06-10T00:29:20;19.60;19.50;15.70
50589;PMS7003;36547;50.514;30.840;2023-06-10T00:30:22;18.50;18.50;15.40
50589;PMS7003;36547;50.514;30.840;2023-06-10T00:31:24;20.60;19.80;16.60
50589;PMS7003;36547;50.514;30.840;2023-06-10T00:32:27;19.00;17.80;14.50
50589;PMS7003;36547;50.514;30.840;2023-06-10T00:33:30;19.90;19.60;14.90
50589;PMS7003;36547;50.514;30.840;2023-06-10T00:34:32;22.80;20.60;15.70
50589;PMS7003;36547;50.514;30.840;2023-06-10T00:35:34;22.60;21.20;16.20
50589;PMS7003;36547;50.514;30.840;2023-06-10T00:36:36;20.10;20.10;15.40
50589;PMS7003;36547;50.514;30.840;2023-06-10T00:37:39;21.40;20.70;16.20
50589;PMS7003;36547;50.514;30.840;2023-06-10T00:38:41;21.50;18.80;14.80
50589;PMS7003;36547;50.514;30.840;2023-06-10T00:39:44;20.50;19.50;15.50
50589;PMS7003;36547;50.514;30.840;2023-06-10T00:40:46;21.90;19.80;15.10
50589;PMS7003;36547;50.514;30.840;2023-06-10T00:41:49;22.60;20.40;16.50
50589;PMS7003;36547;50.514;30.840;2023-06-10T00:42:51;17.70;17.60;15.00
50589;PMS7003;36547;50.514;30.840;2023-06-10T00:43:56;18.80;18.20;13.90
50589;PMS7003;36547;50.514;30.840;2023-06-10T00:44:58;17.00;17.00;15.09
50589;PMS7003;36547;50.514;30.840;2023-06-10T00:46:01;19.50;18.50;13.70
50589;PMS7003;36547;50.514;30.840;2023-06-10T00:47:04;15.36;13.64;9.36
50589;PMS7003;36547;50.514;30.840;2023-06-10T00:48:08;19.30;19.30;14.90
50589;PMS7003;36547;50.514;30.840;2023-06-10T00:49:10;20.30;19.80;15.80
50589;PMS7003;36547;50.514;30.840;2023-06-10T00:50:13;19.10;18.40;16.20
50589;PMS7003;36547;50.514;30.840;2023-06-10T00:51:16;18.90;18.40;14.50
50589;PMS7003;36547;50.514;30.840;2023-06-10T00:52:19;21.00;19.20;13.80
50589;PMS7003;36547;50.514;30.840;2023-06-10T00:53:23;19.50;18.60;15.00
50589;PMS7003;36547;50.514;30.840;2023-06-10T00:54:26;20.60;18.90;15.20
50589;PMS7003;36547;50.514;30.840;2023-06-10T00:55:29;16.82;16.45;13.55
50589;PMS7003;36547;50.514;30.840;2023-06-10T00:56:32;21.73;18.55;15.55
50589;PMS7003;36547;50.514;30.840;2023-06-10T00:57:35;7.50;6.10;3.20
50589;PMS7003;36547;50.514;30.840;2023-06-10T00:58:38;18.90;17.60;14.50
50589;PMS7003;36547;50.514;30.840;2023-06-10T00:59:41;18.10;17.60;15.10
50589;PMS7003;36547;50.514;30.840;2023-06-10T01:00:45;21.00;19.40;15.10
50589;PMS7003;36547;50.514;30.840;2023-06-10T01:01:48;20.73;18.27;14.82
50589;PMS7003;36547;50.514;30.840;2023-06-10T01:02:51;19.09;18.73;14.82
50589;PMS7003;36547;50.514;30.840;2023-06-10T01:03:54;18.82;18.45;15.00
50589;PMS7003;36547;50.514;30.840;2023-06-10T01:04:56;19.60;19.40;15.90
50589;PMS7003;36547;50.514;30.840;2023-06-10T01:06:01;19.30;18.60;15.30
50589;PMS7003;36547;50.514;30.840;2023-06-10T01:07:17;19.80;19.80;16.10
50589;PMS7003;36547;50.514;30.840;2023-06-10T01:08:40;19.40;17.80;14.80
50589;PMS7003;36547;50.514;30.840;2023-06-10T01:11:21;21.20;20.10;16.40
50589;PMS7003;36547;50.514;30.840;2023-06-10T01:13:45;19.70;18.40;15.90
50589;PMS7003;36547;50.514;30.840;2023-06-10T01:14:50;18.90;17.00;14.20
50589;PMS7003;36547;50.514;30.840;2023-06-10T01:15:52;20.82;17.55;14.45
50589;PMS7003;36547;50.514;30.840;2023-06-10T01:16:56;18.50;18.10;13.90
50589;PMS7003;36547;50.514;30.840;2023-06-10T01:18:02;19.00;19.00;15.20
50589;PMS7003;36547;50.514;30.840;2023-06-10T01:19:07;19.50;19.50;15.80
50589;PMS7003;36547;50.514;30.840;2023-06-10T01:20:09;20.20;19.30;15.00
50589;PMS7003;36547;50.514;30.840;2023-06-10T01:21:19;18.90;18.00;14.10
50589;PMS7003;36547;50.514;30.840;2023-06-10T01:23:33;22.10;20.00;14.70
50589;PMS7003;36547;50.514;30.840;2023-06-10T01:24:36;19.80;19.00;14.50
50589;PMS7003;36547;50.514;30.840;2023-06-10T01:27:10;20.90;20.10;14.60
50589;PMS7003;36547;50.514;30.840;2023-06-10T01:28:17;19.00;19.00;15.20
50589;PMS7003;36547;50.514;30.840;2023-06-10T01:32:15;16.70;16.70;13.90
50589;PMS7003;36547;50.514;30.840;2023-06-10T01:33:31;22.40;18.70;13.40
50589;PMS7003;36547;50.514;30.840;2023-06-10T01:34:35;23.10;20.10;16.50
50589;PMS7003;36547;50.514;30.840;2023-06-10T01:35:39;18.40;17.90;14.40
50589;PMS7003;36547;50.514;30.840;2023-06-10T01:36:44;21.20;19.50;16.10
50589;PMS7003;36547;50.514;30.840;2023-06-10T01:37:49;17.70;16.80;13.70
50589;PMS7003;36547;50.514;30.840;2023-06-10T01:38:54;18.40;18.40;15.00
50589;PMS7003;36547;50.514;30.840;2023-06-10T01:40:00;20.90;18.80;14.80
50589;PMS7003;36547;50.514;30.840;2023-06-10T01:41:04;17.60;17.60;14.50
50589;PMS7003;36547;50.514;30.840;2023-06-10T01:42:08;19.90;19.20;15.50
50589;PMS7003;36547;50.514;30.840;2023-06-10T01:43:13;21.80;18.40;14.20
50589;PMS7003;36547;50.514;30.840;2023-06-10T01:44:21;16.50;15.20;13.30
50589;PMS7003;36547;50.514;30.840;2023-06-10T01:45:24;19.10;18.00;14.30
50589;PMS7003;36547;50.514;30.840;2023-06-10T01:46:27;21.18;18.91;14.91
50589;PMS7003;36547;50.514;30.840;2023-06-10T01:47:30;19.18;17.18;12.64
50589;PMS7003;36547;50.514;30.840;2023-06-10T01:48:34;21.20;19.50;15.60
50589;PMS7003;36547;50.514;30.840;2023-06-10T01:49:37;20.00;18.73;14.91
50589;PMS7003;36547;50.514;30.840;2023-06-10T01:50:42;18.80;17.90;13.40
50589;PMS7003;36547;50.514;30.840;2023-06-10T01:51:44;19.70;18.90;13.70
50589;PMS7003;36547;50.514;30.840;2023-06-10T01:52:47;21.70;19.50;16.00
50589;PMS7003;36547;50.514;30.840;2023-06-10T01:53:49;19.22;19.11;15.11
50589;PMS7003;36547;50.514;30.840;2023-06-10T01:54:51;19.00;18.70;14.60
50589;PMS7003;36547;50.514;30.840;2023-06-10T01:55:56;20.30;17.50;13.30
50589;PMS7003;36547;50.514;30.840;2023-06-10T01:56:58;19.50;18.00;14.60
50589;PMS7003;36547;50.514;30.840;2023-06-10T01:58:00;20.80;19.00;15.90
50589;PMS7003;36547;50.514;30.840;2023-06-10T01:59:03;19.00;18.27;14.82
50589;PMS7003;36547;50.514;30.840;2023-06-10T02:00:07;17.70;16.70;13.50
50589;PMS7003;36547;50.514;30.840;2023-06-10T02:01:13;19.10;16.50;13.60
50589;PMS7003;36547;50.514;30.840;2023-06-10T02:02:15;21.30;18.40;14.00
50589;PMS7003;36547;50.514;30.840;2023-06-10T02:03:18;17.40;16.80;13.90
50589;PMS7003;36547;50.514;30.840;2023-06-10T02:04:20;19.00;19.00;16.10
50589;PMS7003;36547;50.514;30.840;2023-06-10T02:05:22;18.90;16.40;13.20
50589;PMS7003;36547;50.514;30.840;2023-06-10T02:06:25;18.10;17.50;14.00
50589;PMS7003;36547;50.514;30.840;2023-06-10T02:07:28;20.00;18.40;15.30
50589;PMS7003;36547;50.514;30.840;2023-06-10T02:08:30;18.20;17.30;13.70
50589;PMS7003;36547;50.514;30.840;2023-06-10T02:09:34;19.70;16.40;14.10
50589;PMS7003;36547;50.514;30.840;2023-06-10T02:10:37;13.10;12.40;12.30
50589;PMS7003;36547;50.514;30.840;2023-06-10T02:11:40;18.60;18.30;14.60
50589;PMS7003;36547;50.514;30.840;2023-06-10T02:12:42;18.60;18.60;15.00
50589;PMS7003;36547;50.514;30.840;2023-06-10T02:13:44;20.00;19.60;15.40
50589;PMS7003;36547;50.514;30.840;2023-06-10T02:14:47;18.50;17.10;13.40
50589;PMS7003;36547;50.514;30.840;2023-06-10T02:15:49;18.30;17.60;13.80
50589;PMS7003;36547;50.514;30.840;2023-06-10T02:16:52;18.20;17.20;13.70
50589;PMS7003;36547;50.514;30.840;2023-06-10T02:17:54;18.70;16.60;14.10
50589;PMS7003;36547;50.514;30.840;2023-06-10T02:18:57;22.90;20.20;16.10
50589;PMS7003;36547;50.514;30.840;2023-06-10T02:19:59;18.70;16.70;13.40
50589;PMS7003;36547;50.514;30.840;2023-06-10T02:21:01;19.00;17.50;14.30
50589;PMS7003;36547;50.514;30.840;2023-06-10T02:22:04;17.90;17.30;13.70
50589;PMS7003;36547;50.514;30.840;2023-06-10T02:23:06;19.10;19.10;15.00
50589;PMS7003;36547;50.514;30.840;2023-06-10T02:24:10;19.80;18.40;14.60
50589;PMS7003;36547;50.514;30.840;2023-06-10T02:25:12;21.30;18.50;14.80
50589;PMS7003;36547;50.514;30.840;2023-06-10T02:26:15;20.27;19.18;15.18
50589;PMS7003;36547;50.514;30.840;2023-06-10T02:27:17;21.30;20.70;15.10
50589;PMS7003;36547;50.514;30.840;2023-06-10T02:28:20;20.70;18.30;14.50
50589;PMS7003;36547;50.514;30.840;2023-06-10T02:29:22;18.90;17.80;14.40
50589;PMS7003;36547;50.514;30.840;2023-06-10T02:30:25;17.20;16.20;12.90
50589;PMS7003;36547;50.514;30.840;2023-06-10T02:31:27;19.70;18.20;14.70
50589;PMS7003;36547;50.514;30.840;2023-06-10T02:32:29;17.40;17.30;13.40
50589;PMS7003;36547;50.514;30.840;2023-06-10T02:33:33;17.00;16.20;13.00
50589;PMS7003;36547;50.514;30.840;2023-06-10T02:34:36;18.50;17.50;13.10
50589;PMS7003;36547;50.514;30.840;2023-06-10T02:35:38;19.00;16.80;12.10
50589;PMS7003;36547;50.514;30.840;2023-06-10T02:36:41;16.40;16.40;13.00
50589;PMS7003;36547;50.514;30.840;2023-06-10T02:37:44;17.82;17.82;13.27
50589;PMS7003;36547;50.514;30.840;2023-06-10T02:38:46;16.70;16.00;12.80
50589;PMS7003;36547;50.514;30.840;2023-06-10T02:39:49;19.50;18.20;14.40
50589;PMS7003;36547;50.514;30.840;2023-06-10T02:40:51;19.40;17.90;14.70
50589;PMS7003;36547;50.514;30.840;2023-06-10T02:41:53;19.30;17.70;14.20
50589;PMS7003;36547;50.514;30.840;2023-06-10T02:42:56;17.20;16.20;13.50
50589;PMS7003;36547;50.514;30.840;2023-06-10T02:43:59;18.90;17.30;14.10
50589;PMS7003;36547;50.514;30.840;2023-06-10T02:45:02;16.00;16.00;13.09
50589;PMS7003;36547;50.514;30.840;2023-06-10T02:46:08;16.80;16.80;14.20
50589;PMS7003;36547;50.514;30.840;2023-06-10T02:47:11;19.30;16.20;14.20
50589;PMS7003;36547;50.514;30.840;2023-06-10T02:48:14;15.90;15.90;12.70
50589;PMS7003;36547;50.514;30.840;2023-06-10T02:49:16;18.40;16.90;13.80
50589;PMS7003;36547;50.514;30.840;2023-06-10T02:50:20;16.30;13.30;12.00
50589;PMS7003;36547;50.514;30.840;2023-06-10T02:51:27;16.30;15.20;12.70
50589;PMS7003;36547;50.514;30.840;2023-06-10T02:52:32;16.20;14.10;12.20
50589;PMS7003;36547;50.514;30.840;2023-06-10T02:53:35;15.50;15.50;12.90
50589;PMS7003;36547;50.514;30.840;2023-06-10T02:54:39;17.80;16.90;13.50
50589;PMS7003;36547;50.514;30.840;2023-06-10T02:55:42;18.50;17.20;14.10
50589;PMS7003;36547;50.514;30.840;2023-06-10T02:56:47;17.70;16.20;13.20
50589;PMS7003;36547;50.514;30.840;2023-06-10T02:57:52;18.70;18.00;13.60
50589;PMS7003;36547;50.514;30.840;2023-06-10T02:58:55;16.20;15.50;12.70
50589;PMS7003;36547;50.514;30.840;2023-06-10T02:59:57;16.73;16.55;13.64
50589;PMS7003;36547;50.514;30.840;2023-06-10T03:01:00;17.36;16.18;12.64
50589;PMS7003;36547;50.514;30.840;2023-06-10T03:02:05;13.10;13.10;11.10
50589;PMS7003;36547;50.514;30.840;2023-06-10T03:03:09;16.80;14.60;11.80
50589;PMS7003;36547;50.514;30.840;2023-06-10T03:04:13;16.00;16.00;13.60
50589;PMS7003;36547;50.514;30.840;2023-06-10T03:05:18;17.30;17.30;13.70
50589;PMS7003;36547;50.514;30.840;2023-06-10T03:06:22;16.60;16.60;12.10
50589;PMS7003;36547;50.514;30.840;2023-06-10T03:07:26;18.40;15.20;12.60
50589;PMS7003;36547;50.514;30.840;2023-06-10T03:08:28;16.40;15.80;12.50
50589;PMS7003;36547;50.514;30.840;2023-06-10T03:09:31;19.18;17.00;12.36
50589;PMS7003;36547;50.514;30.840;2023-06-10T03:10:35;15.70;15.50;12.30
50589;PMS7003;36547;50.514;30.840;2023-06-10T03:11:38;17.90;17.20;14.20
50589;PMS7003;36547;50.514;30.840;2023-06-10T03:12:42;18.20;16.70;13.40
50589;PMS7003;36547;50.514;30.840;2023-06-10T03:13:45;19.82;18.09;15.36
50589;PMS7003;36547;50.514;30.840;2023-06-10T03:14:49;16.00;15.60;12.20
50589;PMS7003;36547;50.514;30.840;2023-06-10T03:15:52;15.10;13.70;11.60
50589;PMS7003;36547;50.514;30.840;2023-06-10T03:16:56;17.20;15.10;12.60
50589;PMS7003;36547;50.514;30.840;2023-06-10T03:17:59;14.36;14.36;12.18
50589;PMS7003;36547;50.514;30.840;2023-06-10T03:19:02;18.00;15.80;13.40
50589;PMS7003;36547;50.514;30.840;2023-06-10T03:20:06;16.80;16.60;12.50
50589;PMS7003;36547;50.514;30.840;2023-06-10T03:21:10;16.80;16.20;13.40
50589;PMS7003;36547;50.514;30.840;2023-06-10T03:22:14;18.10;16.90;14.10
50589;PMS7003;36547;50.514;30.840;2023-06-10T03:23:18;14.80;14.80;12.80
50589;PMS7003;36547;50.514;30.840;2023-06-10T03:24:21;15.50;15.50;12.20
50589;PMS7003;36547;50.514;30.840;2023-06-10T03:25:24;16.10;15.50;12.60
50589;PMS7003;36547;50.514;30.840;2023-06-10T03:26:27;16.40;14.90;12.00
50589;PMS7003;36547;50.514;30.840;2023-06-10T03:27:30;17.45;14.64;10.91
50589;PMS7003;36547;50.514;30.840;2023-06-10T03:28:34;15.90;15.40;13.70
50589;PMS7003;36547;50.514;30.840;2023-06-10T03:29:37;15.80;15.80;12.60
50589;PMS7003;36547;50.514;30.840;2023-06-10T03:30:40;18.50;18.00;13.90
50589;PMS7003;36547;50.514;30.840;2023-06-10T03:31:42;17.00;16.20;12.60
50589;PMS7003;36547;50.514;30.840;2023-06-10T03:32:45;17.50;17.50;13.20
50589;PMS7003;36547;50.514;30.840;2023-06-10T03:33:49;17.50;16.70;13.30
50589;PMS7003;36547;50.514;30.840;2023-06-10T03:34:51;18.30;17.80;13.30
50589;PMS7003;36547;50.514;30.840;2023-06-10T03:35:54;16.70;16.70;13.50
50589;PMS7003;36547;50.514;30.840;2023-06-10T03:36:57;17.70;16.50;14.10
50589;PMS7003;36547;50.514;30.840;2023-06-10T03:38:00;17.60;15.90;13.40
50589;PMS7003;36547;50.514;30.840;2023-06-10T03:39:02;16.30;16.30;13.20
50589;PMS7003;36547;50.514;30.840;2023-06-10T03:40:06;17.55;17.18;13.91
50589;PMS7003;36547;50.514;30.840;2023-06-10T03:41:10;17.80;16.40;12.50
50589;PMS7003;36547;50.514;30.840;2023-06-10T03:42:13;19.50;17.30;14.20
50589;PMS7003;36547;50.514;30.840;2023-06-10T03:43:16;15.90;15.90;13.00
50589;PMS7003;36547;50.514;30.840;2023-06-10T03:44:18;17.90;17.10;13.10
50589;PMS7003;36547;50.514;30.840;2023-06-10T03:45:21;15.40;15.10;12.40
50589;PMS7003;36547;50.514;30.840;2023-06-10T03:46:23;18.20;16.20;13.30
50589;PMS7003;36547;50.514;30.840;2023-06-10T03:47:26;15.45;14.45;11.73
50589;PMS7003;36547;50.514;30.840;2023-06-10T03:48:28;18.70;17.20;14.10
50589;PMS7003;36547;50.514;30.840;2023-06-10T03:49:31;16.20;15.80;12.70
50589;PMS7003;36547;50.514;30.840;2023-06-10T03:50:35;15.60;15.60;12.20
50589;PMS7003;36547;50.514;30.840;2023-06-10T03:51:37;16.50;16.50;13.70
50589;PMS7003;36547;50.514;30.840;2023-06-10T03:52:40;18.10;15.80;12.50
50589;PMS7003;36547;50.514;30.840;2023-06-10T03:53:43;16.70;15.20;12.40
50589;PMS7003;36547;50.514;30.840;2023-06-10T03:54:46;14.60;13.70;11.80
50589;PMS7003;36547;50.514;30.840;2023-06-10T03:55:48;17.20;15.60;13.00
50589;PMS7003;36547;50.514;30.840;2023-06-10T03:56:52;15.20;15.20;12.90
50589;PMS7003;36547;50.514;30.840;2023-06-10T03:57:54;15.40;15.30;12.30
50589;PMS7003;36547;50.514;30.840;2023-06-10T03:58:56;14.70;14.40;11.60
50589;PMS7003;36547;50.514;30.840;2023-06-10T03:59:59;17.90;16.50;13.70
50589;PMS7003;36547;50.514;30.840;2023-06-10T04:01:02;16.09;15.73;12.82
50589;PMS7003;36547;50.514;30.840;2023-06-10T04:02:06;16.20;15.60;13.30
50589;PMS7003;36547;50.514;30.840;2023-06-10T04:03:09;15.90;15.30;13.40
50589;PMS7003;36547;50.514;30.840;2023-06-10T04:04:14;16.10;16.10;13.30
50589;PMS7003;36547;50.514;30.840;2023-06-10T04:05:16;15.50;15.50;12.90
50589;PMS7003;36547;50.514;30.840;2023-06-10T04:06:20;19.10;18.10;13.80
50589;PMS7003;36547;50.514;30.840;2023-06-10T04:07:23;16.20;14.60;11.90
50589;PMS7003;36547;50.514;30.840;2023-06-10T04:08:25;16.10;15.00;11.80
50589;PMS7003;36547;50.514;30.840;2023-06-10T04:09:28;18.00;16.91;13.64
50589;PMS7003;36547;50.514;30.840;2023-06-10T04:10:32;19.50;17.40;13.70
50589;PMS7003;36547;50.514;30.840;2023-06-10T04:11:35;15.60;14.70;12.60
50589;PMS7003;36547;50.514;30.840;2023-06-10T04:12:38;16.70;16.50;12.60
50589;PMS7003;36547;50.514;30.840;2023-06-10T04:13:41;18.10;17.10;12.50
50589;PMS7003;36547;50.514;30.840;2023-06-10T04:14:43;14.60;14.60;11.50
50589;PMS7003;36547;50.514;30.840;2023-06-10T04:15:46;17.60;16.80;13.00
50589;PMS7003;36547;50.514;30.840;2023-06-10T04:16:50;14.00;13.20;10.70
50589;PMS7003;36547;50.514;30.840;2023-06-10T04:17:53;16.64;15.73;12.09
50589;PMS7003;36547;50.514;30.840;2023-06-10T04:18:58;16.00;14.90;12.10
50589;PMS7003;36547;50.514;30.840;2023-06-10T04:20:01;16.50;15.90;12.70
50589;PMS7003;36547;50.514;30.840;2023-06-10T04:21:03;16.70;16.10;13.00
50589;PMS7003;36547;50.514;30.840;2023-06-10T04:22:06;16.10;15.00;12.80
50589;PMS7003;36547;50.514;30.840;2023-06-10T04:23:08;15.70;14.30;11.90
50589;PMS7003;36547;50.514;30.840;2023-06-10T04:24:12;14.70;14.70;11.50
50589;PMS7003;36547;50.514;30.840;2023-06-10T04:25:15;14.40;14.10;11.80
50589;PMS7003;36547;50.514;30.840;2023-06-10T04:26:18;15.18;15.18;12.64
50589;PMS7003;36547;50.514;30.840;2023-06-10T04:27:21;16.40;16.00;13.10
50589;PMS7003;36547;50.514;30.840;2023-06-10T04:28:23;15.90;14.20;11.90
50589;PMS7003;36547;50.514;30.840;2023-06-10T04:29:26;15.30;14.50;12.40
50589;PMS7003;36547;50.514;30.840;2023-06-10T04:30:28;17.20;16.40;12.60
50589;PMS7003;36547;50.514;30.840;2023-06-10T04:31:30;16.00;15.40;12.10
50589;PMS7003;36547;50.514;30.840;2023-06-10T04:32:33;14.60;13.80;11.50
50589;PMS7003;36547;50.514;30.840;2023-06-10T04:33:36;13.00;12.90;11.40
50589;PMS7003;36547;50.514;30.840;2023-06-10T04:34:38;15.20;13.70;11.20
50589;PMS7003;36547;50.514;30.840;2023-06-10T04:35:41;14.10;14.10;11.80
50589;PMS7003;36547;50.514;30.840;2023-06-10T04:36:44;15.10;15.10;12.10
50589;PMS7003;36547;50.514;30.840;2023-06-10T04:37:47;16.00;13.70;11.30
50589;PMS7003;36547;50.514;30.840;2023-06-10T04:38:50;16.45;14.27;11.27
50589;PMS7003;36547;50.514;30.840;2023-06-10T04:39:53;16.40;15.10;12.90
50589;PMS7003;36547;50.514;30.840;2023-06-10T04:40:56;13.20;13.20;10.40
50589;PMS7003;36547;50.514;30.840;2023-06-10T04:41:58;12.70;12.70;11.20
50589;PMS7003;36547;50.514;30.840;2023-06-10T04:43:01;13.18;13.00;10.91
50589;PMS7003;36547;50.514;30.840;2023-06-10T04:44:04;14.90;13.70;11.00
50589;PMS7003;36547;50.514;30.840;2023-06-10T04:45:07;15.27;13.36;10.91
50589;PMS7003;36547;50.514;30.840;2023-06-10T04:46:11;15.30;13.30;10.80
50589;PMS7003;36547;50.514;30.840;2023-06-10T04:47:13;13.80;13.30;10.90
50589;PMS7003;36547;50.514;30.840;2023-06-10T04:48:16;15.40;13.60;10.70
50589;PMS7003;36547;50.514;30.840;2023-06-10T04:49:18;17.10;15.70;12.30
50589;PMS7003;36547;50.514;30.840;2023-06-10T04:50:21;16.09;14.82;10.91
50589;PMS7003;36547;50.514;30.840;2023-06-10T04:51:23;13.70;12.70;11.60
50589;PMS7003;36547;50.514;30.840;2023-06-10T04:52:26;14.00;13.40;11.00
50589;PMS7003;36547;50.514;30.840;2023-06-10T04:53:29;13.20;13.20;11.70
50589;PMS7003;36547;50.514;30.840;2023-06-10T04:54:31;14.10;14.10;11.40
50589;PMS7003;36547;50.514;30.840;2023-06-10T04:55:34;15.00;13.50;11.30
50589;PMS7003;36547;50.514;30.840;2023-06-10T04:56:36;14.80;13.70;11.30
50589;PMS7003;36547;50.514;30.840;2023-06-10T04:57:39;14.00;14.00;11.70
50589;PMS7003;36547;50.514;30.840;2023-06-10T04:58:41;13.90;13.90;10.80
50589;PMS7003;36547;50.514;30.840;2023-06-10T04:59:44;14.20;13.60;11.00
50589;PMS7003;36547;50.514;30.840;2023-06-10T05:00:46;13.50;13.50;11.50
50589;PMS7003;36547;50.514;30.840;2023-06-10T05:01:49;12.20;12.20;10.80
50589;PMS7003;36547;50.514;30.840;2023-06-10T05:02:51;12.18;11.82;9.27
50589;PMS7003;36547;50.514;30.840;2023-06-10T05:03:54;13.30;11.40;9.70
50589;PMS7003;36547;50.514;30.840;2023-06-10T05:04:56;14.20;13.00;10.20
50589;PMS7003;36547;50.514;30.840;2023-06-10T05:05:58;15.00;14.40;11.20
50589;PMS7003;36547;50.514;30.840;2023-06-10T05:07:01;14.10;13.40;11.10
50589;PMS7003;36547;50.514;30.840;2023-06-10T05:08:03;14.00;13.10;10.50
50589;PMS7003;36547;50.514;30.840;2023-06-10T05:09:09;12.70;12.60;11.20
50589;PMS7003;36547;50.514;30.840;2023-06-10T05:10:12;13.00;12.30;10.50
50589;PMS7003;36547;50.514;30.840;2023-06-10T05:11:14;15.30;14.60;10.90
50589;PMS7003;36547;50.514;30.840;2023-06-10T05:12:17;15.30;13.30;11.00
50589;PMS7003;36547;50.514;30.840;2023-06-10T05:13:19;14.10;13.20;10.70
50589;PMS7003;36547;50.514;30.840;2023-06-10T05:14:22;14.40;14.20;11.80
50589;PMS7003;36547;50.514;30.840;2023-06-10T05:15:24;15.70;12.70;10.40
50589;PMS7003;36547;50.514;30.840;2023-06-10T05:16:27;11.90;11.90;10.20
50589;PMS7003;36547;50.514;30.840;2023-06-10T05:17:29;14.70;13.50;10.30
50589;PMS7003;36547;50.514;30.840;2023-06-10T05:18:32;14.18;13.18;11.45
50589;PMS7003;36547;50.514;30.840;2023-06-10T05:19:35;12.80;12.00;9.10
50589;PMS7003;36547;50.514;30.840;2023-06-10T05:20:37;14.80;14.80;12.30
50589;PMS7003;36547;50.514;30.840;2023-06-10T05:21:39;14.60;14.10;12.00
50589;PMS7003;36547;50.514;30.840;2023-06-10T05:22:42;11.00;10.80;9.00
50589;PMS7003;36547;50.514;30.840;2023-06-10T05:23:44;14.40;12.30;10.10
50589;PMS7003;36547;50.514;30.840;2023-06-10T05:24:47;13.10;13.00;10.90
50589;PMS7003;36547;50.514;30.840;2023-06-10T05:25:50;13.20;12.80;10.90
50589;PMS7003;36547;50.514;30.840;2023-06-10T05:26:53;14.20;13.10;9.80
50589;PMS7003;36547;50.514;30.840;2023-06-10T05:27:55;13.30;13.10;10.50
50589;PMS7003;36547;50.514;30.840;2023-06-10T05:28:58;9.30;8.30;6.40
50589;PMS7003;36547;50.514;30.840;2023-06-10T05:30:00;13.90;13.20;10.40
50589;PMS7003;36547;50.514;30.840;2023-06-10T05:31:03;12.00;11.60;9.70
50589;PMS7003;36547;50.514;30.840;2023-06-10T05:32:06;13.20;12.20;10.90
50589;PMS7003;36547;50.514;30.840;2023-06-10T05:33:08;14.91;14.64;11.36
50589;PMS7003;36547;50.514;30.840;2023-06-10T05:34:10;17.10;14.50;11.90
50589;PMS7003;36547;50.514;30.840;2023-06-10T05:35:13;13.00;13.00;11.00
50589;PMS7003;36547;50.514;30.840;2023-06-10T05:36:16;13.50;13.00;11.00
50589;PMS7003;36547;50.514;30.840;2023-06-10T05:37:19;13.50;12.90;10.70
50589;PMS7003;36547;50.514;30.840;2023-06-10T05:38:22;13.20;12.50;10.50
50589;PMS7003;36547;50.514;30.840;2023-06-10T05:39:24;12.80;12.80;10.30
50589;PMS7003;36547;50.514;30.840;2023-06-10T05:40:27;12.80;12.20;10.20
50589;PMS7003;36547;50.514;30.840;2023-06-10T05:41:29;14.00;13.20;11.10
50589;PMS7003;36547;50.514;30.840;2023-06-10T05:42:32;11.40;11.40;9.70
50589;PMS7003;36547;50.514;30.840;2023-06-10T05:43:34;12.00;12.00;10.10
50589;PMS7003;36547;50.514;30.840;2023-06-10T05:44:36;12.89;12.89;10.44
50589;PMS7003;36547;50.514;30.840;2023-06-10T05:45:38;12.50;11.80;10.30
50589;PMS7003;36547;50.514;30.840;2023-06-10T05:46:41;11.50;11.50;9.40
50589;PMS7003;36547;50.514;30.840;2023-06-10T05:47:44;12.20;12.20;9.70
50589;PMS7003;36547;50.514;30.840;2023-06-10T05:48:47;12.10;12.10;10.40
50589;PMS7003;36547;50.514;30.840;2023-06-10T05:49:49;11.40;11.40;9.50
50589;PMS7003;36547;50.514;30.840;2023-06-10T05:50:51;13.60;12.30;10.40
50589;PMS7003;36547;50.514;30.840;2023-06-10T05:51:54;12.64;11.91;9.91
50589;PMS7003;36547;50.514;30.840;2023-06-10T05:52:57;12.30;12.30;10.20
50589;PMS7003;36547;50.514;30.840;2023-06-10T05:53:59;12.20;12.20;10.40
50589;PMS7003;36547;50.514;30.840;2023-06-10T05:56:13;14.60;12.90;10.50
50589;PMS7003;36547;50.514;30.840;2023-06-10T05:57:16;13.30;13.30;11.40
50589;PMS7003;36547;50.514;30.840;2023-06-10T05:58:18;14.50;13.90;11.10